sensor_id;sensor_type;location;lat;lon;timestamp;pressure;altitude;pressure_sealevel;temperature;humidity
46886;BME280;32622;48.202;11.326;2023-06-04T00:01:44;1017.80;;;14.04;30.33
46886;BME280;32622;48.202;11.326;2023-06-04T00:03:48;1017.87;;;13.63;30.69
46886;BME280;32622;48.202;11.326;2023-06-04T00:05:52;1017.76;;;14.12;29.79
46886;BME280;32622;48.202;11.326;2023-06-04T00:07:57;1017.48;;;15.43;28.67
46886;BME280;32622;48.202;11.326;2023-06-04T00:10:00;1017.73;;;14.44;29.48
46886;BME280;32622;48.202;11.326;2023-06-04T00:12:04;1017.51;;;15.39;28.45
46886;BME280;32622;48.202;11.326;2023-06-04T00:14:22;1017.39;;;15.97;27.98
46886;BME280;32622;48.202;11.326;2023-06-04T00:16:27;1017.70;;;14.40;29.12
46886;BME280;32622;48.202;11.326;2023-06-04T00:18:31;1017.51;;;15.18;28.57
46886;BME280;32622;48.202;11.326;2023-06-04T00:20:35;1017.64;;;14.59;28.96
46886;BME280;32622;48.202;11.326;2023-06-04T00:22:39;1017.48;;;15.25;28.64
46886;BME280;32622;48.202;11.326;2023-06-04T00:24:43;1017.52;;;15.08;28.48
46886;BME280;32622;48.202;11.326;2023-06-04T00:26:47;1017.68;;;14.29;29.55
46886;BME280;32622;48.202;11.326;2023-06-04T00:28:51;1017.90;;;13.45;30.18
46886;BME280;32622;48.202;11.326;2023-06-04T00:30:55;1018.34;;;11.52;32.55
46886;BME280;32622;48.202;11.326;2023-06-04T00:33:00;1017.89;;;13.38;30.95
46886;BME280;32622;48.202;11.326;2023-06-04T00:35:04;1017.89;;;13.39;30.73
46886;BME280;32622;48.202;11.326;2023-06-04T00:37:08;1017.66;;;14.30;29.89
46886;BME280;32622;48.202;11.326;2023-06-04T00:39:11;1017.63;;;14.36;29.40
46886;BME280;32622;48.202;11.326;2023-06-04T00:41:15;1017.52;;;14.76;28.73
46886;BME280;32622;48.202;11.326;2023-06-04T00:43:18;1017.54;;;14.67;28.80
46886;BME280;32622;48.202;11.326;2023-06-04T00:45:22;1017.64;;;14.25;29.36
46886;BME280;32622;48.202;11.326;2023-06-04T00:47:26;1017.56;;;14.78;28.65
46886;BME280;32622;48.202;11.326;2023-06-04T00:49:30;1017.72;;;14.10;29.46
46886;BME280;32622;48.202;11.326;2023-06-04T00:51:34;1017.86;;;13.69;29.90
46886;BME280;32622;48.202;11.326;2023-06-04T00:53:38;1017.67;;;14.38;29.31
46886;BME280;32622;48.202;11.326;2023-06-04T00:55:42;1017.71;;;14.19;29.12
46886;BME280;32622;48.202;11.326;2023-06-04T00:57:46;1017.68;;;14.26;29.01
46886;BME280;32622;48.202;11.326;2023-06-04T00:59:50;1017.82;;;13.70;30.27
46886;BME280;32622;48.202;11.326;2023-06-04T01:01:58;1017.79;;;13.84;30.12
46886;BME280;32622;48.202;11.326;2023-06-04T01:04:05;1017.83;;;13.72;29.77
46886;BME280;32622;48.202;11.326;2023-06-04T01:06:15;1017.63;;;14.58;28.78
46886;BME280;32622;48.202;11.326;2023-06-04T01:08:22;1017.62;;;14.69;28.99
46886;BME280;32622;48.202;11.326;2023-06-04T01:10:26;1017.55;;;14.91;28.38
46886;BME280;32622;48.202;11.326;2023-06-04T01:12:32;1017.72;;;14.07;29.24
46886;BME280;32622;48.202;11.326;2023-06-04T01:14:36;1017.41;;;15.50;28.06
46886;BME280;32622;48.202;11.326;2023-06-04T01:16:42;1017.72;;;14.16;29.25
46886;BME280;32622;48.202;11.326;2023-06-04T01:18:53;1017.90;;;13.58;29.81
46886;BME280;32622;48.202;11.326;2023-06-04T01:21:00;1018.13;;;12.58;31.16
46886;BME280;32622;48.202;11.326;2023-06-04T01:23:25;1018.17;;;12.42;31.72
46886;BME280;32622;48.202;11.326;2023-06-04T01:25:34;1017.96;;;13.28;31.16
46886;BME280;32622;48.202;11.326;2023-06-04T01:27:38;1017.94;;;13.44;30.99
46886;BME280;32622;48.202;11.326;2023-06-04T01:29:43;1017.88;;;13.67;30.17
46886;BME280;32622;48.202;11.326;2023-06-04T01:31:47;1017.80;;;14.17;29.59
46886;BME280;32622;48.202;11.326;2023-06-04T01:33:52;1017.98;;;13.42;29.70
46886;BME280;32622;48.202;11.326;2023-06-04T01:35:57;1017.71;;;14.34;28.90
46886;BME280;32622;48.202;11.326;2023-06-04T01:38:02;1017.68;;;14.45;28.93
46886;BME280;32622;48.202;11.326;2023-06-04T01:40:18;1018.42;;;11.26;32.40
46886;BME280;32622;48.202;11.326;2023-06-04T01:42:22;1017.96;;;13.51;30.28
46886;BME280;32622;48.202;11.326;2023-06-04T01:44:26;1018.27;;;12.13;31.52
46886;BME280;32622;48.202;11.326;2023-06-04T01:46:29;1018.17;;;12.75;31.15
46886;BME280;32622;48.202;11.326;2023-06-04T01:48:34;1017.87;;;14.11;29.78
46886;BME280;32622;48.202;11.326;2023-06-04T01:50:37;1017.99;;;13.54;29.97
46886;BME280;32622;48.202;11.326;2023-06-04T01:52:41;1018.23;;;12.72;30.91
46886;BME280;32622;48.202;11.326;2023-06-04T01:54:44;1018.36;;;12.18;31.04
46886;BME280;32622;48.202;11.326;2023-06-04T01:56:48;1018.16;;;13.22;30.67
46886;BME280;32622;48.202;11.326;2023-06-04T01:58:51;1017.94;;;14.10;29.85
46886;BME280;32622;48.202;11.326;2023-06-04T02:00:55;1017.82;;;14.63;28.86
46886;BME280;32622;48.202;11.326;2023-06-04T02:03:03;1017.89;;;14.44;29.06
46886;BME280;32622;48.202;11.326;2023-06-04T02:05:08;1018.24;;;13.02;30.61
46886;BME280;32622;48.202;11.326;2023-06-04T02:07:12;1019.19;;;8.98;36.21
46886;BME280;32622;48.202;11.326;2023-06-04T02:09:16;1018.43;;;12.15;32.28
46886;BME280;32622;48.202;11.326;2023-06-04T02:11:20;1018.25;;;12.95;31.06
46886;BME280;32622;48.202;11.326;2023-06-04T02:13:23;1018.67;;;11.44;33.26
46886;BME280;32622;48.202;11.326;2023-06-04T02:15:29;1018.29;;;12.76;31.62
46886;BME280;32622;48.202;11.326;2023-06-04T02:17:33;1018.28;;;12.78;31.37
46886;BME280;32622;48.202;11.326;2023-06-04T02:19:37;1018.11;;;13.61;30.51
46886;BME280;32622;48.202;11.326;2023-06-04T02:21:41;1018.27;;;12.88;30.79
46886;BME280;32622;48.202;11.326;2023-06-04T02:23:44;1018.12;;;13.60;30.34
46886;BME280;32622;48.202;11.326;2023-06-04T02:25:48;1018.35;;;12.52;30.88
46886;BME280;32622;48.202;11.326;2023-06-04T02:27:51;1018.47;;;12.13;31.94
46886;BME280;32622;48.202;11.326;2023-06-04T02:29:55;1018.10;;;13.71;30.42
46886;BME280;32622;48.202;11.326;2023-06-04T02:31:59;1018.16;;;13.51;30.18
46886;BME280;32622;48.202;11.326;2023-06-04T02:34:03;1018.30;;;12.87;30.87
46886;BME280;32622;48.202;11.326;2023-06-04T02:36:07;1018.44;;;12.36;31.91
46886;BME280;32622;48.202;11.326;2023-06-04T02:38:11;1018.23;;;13.27;30.98
46886;BME280;32622;48.202;11.326;2023-06-04T02:40:15;1018.19;;;13.58;30.42
46886;BME280;32622;48.202;11.326;2023-06-04T02:42:19;1018.21;;;13.46;30.10
46886;BME280;32622;48.202;11.326;2023-06-04T02:44:23;1018.21;;;13.64;29.62
46886;BME280;32622;48.202;11.326;2023-06-04T02:46:27;1018.25;;;13.44;29.97
46886;BME280;32622;48.202;11.326;2023-06-04T02:48:32;1018.43;;;12.68;30.63
46886;BME280;32622;48.202;11.326;2023-06-04T02:50:36;1018.22;;;13.62;30.02
46886;BME280;32622;48.202;11.326;2023-06-04T02:52:40;1018.04;;;14.23;29.24
46886;BME280;32622;48.202;11.326;2023-06-04T02:54:44;1017.98;;;14.55;28.81
46886;BME280;32622;48.202;11.326;2023-06-04T02:56:47;1017.92;;;14.70;28.88
46886;BME280;32622;48.202;11.326;2023-06-04T02:58:52;1017.78;;;15.35;28.21
46886;BME280;32622;48.202;11.326;2023-06-04T03:00:56;1017.80;;;15.08;28.14
46886;BME280;32622;48.202;11.326;2023-06-04T03:03:00;1017.89;;;14.94;28.53
46886;BME280;32622;48.202;11.326;2023-06-04T03:05:04;1018.04;;;14.24;28.86
46886;BME280;32622;48.202;11.326;2023-06-04T03:07:08;1018.00;;;14.55;28.69
46886;BME280;32622;48.202;11.326;2023-06-04T03:09:13;1017.83;;;15.33;28.01
46886;BME280;32622;48.202;11.326;2023-06-04T03:11:17;1017.84;;;15.16;28.19
46886;BME280;32622;48.202;11.326;2023-06-04T03:13:21;1017.85;;;15.23;28.12
46886;BME280;32622;48.202;11.326;2023-06-04T03:15:24;1017.99;;;14.74;28.96
46886;BME280;32622;48.202;11.326;2023-06-04T03:17:28;1017.99;;;14.75;28.93
46886;BME280;32622;48.202;11.326;2023-06-04T03:19:32;1018.13;;;14.08;29.19
46886;BME280;32622;48.202;11.326;2023-06-04T03:21:37;1018.02;;;14.81;28.80
46886;BME280;32622;48.202;11.326;2023-06-04T03:23:41;1018.04;;;14.89;28.38
46886;BME280;32622;48.202;11.326;2023-06-04T03:25:45;1018.09;;;14.79;28.43
46886;BME280;32622;48.202;11.326;2023-06-04T03:27:48;1018.12;;;14.86;28.34
46886;BME280;32622;48.202;11.326;2023-06-04T03:29:52;1018.24;;;14.57;28.66
46886;BME280;32622;48.202;11.326;2023-06-04T03:31:56;1018.15;;;15.26;28.41
46886;BME280;32622;48.202;11.326;2023-06-04T03:34:00;1018.21;;;14.92;28.65
46886;BME280;32622;48.202;11.326;2023-06-04T03:36:04;1018.36;;;14.25;29.46
46886;BME280;32622;48.202;11.326;2023-06-04T03:38:08;1018.22;;;14.85;28.88
46886;BME280;32622;48.202;11.326;2023-06-04T03:40:13;1018.30;;;14.59;28.90
46886;BME280;32622;48.202;11.326;2023-06-04T03:42:17;1018.38;;;14.25;28.94
46886;BME280;32622;48.202;11.326;2023-06-04T03:44:22;1018.40;;;14.23;28.89
46886;BME280;32622;48.202;11.326;2023-06-04T03:46:26;1018.49;;;13.92;29.33
46886;BME280;32622;48.202;11.326;2023-06-04T03:48:30;1018.30;;;14.55;28.65
46886;BME280;32622;48.202;11.326;2023-06-04T03:50:34;1018.31;;;14.43;28.51
46886;BME280;32622;48.202;11.326;2023-06-04T03:52:38;1018.38;;;14.21;28.57
46886;BME280;32622;48.202;11.326;2023-06-04T03:54:42;1018.25;;;14.72;28.57
46886;BME280;32622;48.202;11.326;2023-06-04T03:56:46;1018.30;;;14.53;28.36
46886;BME280;32622;48.202;11.326;2023-06-04T03:58:51;1018.34;;;14.20;27.90
46886;BME280;32622;48.202;11.326;2023-06-04T04:01:01;1018.33;;;14.27;28.20
46886;BME280;32622;48.202;11.326;2023-06-04T04:03:05;1018.30;;;14.44;28.18
46886;BME280;32622;48.202;11.326;2023-06-04T04:05:09;1018.24;;;14.80;27.91
46886;BME280;32622;48.202;11.326;2023-06-04T04:07:13;1018.36;;;14.28;28.15
46886;BME280;32622;48.202;11.326;2023-06-04T04:09:17;1018.35;;;14.48;27.79
46886;BME280;32622;48.202;11.326;2023-06-04T04:11:21;1018.27;;;14.93;27.89
46886;BME280;32622;48.202;11.326;2023-06-04T04:13:25;1018.30;;;14.92;27.59
46886;BME280;32622;48.202;11.326;2023-06-04T04:15:29;1018.19;;;15.26;27.13
46886;BME280;32622;48.202;11.326;2023-06-04T04:17:34;1018.28;;;14.94;27.08
46886;BME280;32622;48.202;11.326;2023-06-04T04:19:37;1018.39;;;14.53;27.02
46886;BME280;32622;48.202;11.326;2023-06-04T04:21:42;1018.37;;;14.74;26.71
46886;BME280;32622;48.202;11.326;2023-06-04T04:23:46;1018.42;;;14.64;26.53
46886;BME280;32622;48.202;11.326;2023-06-04T04:25:51;1018.27;;;15.19;26.46
46886;BME280;32622;48.202;11.326;2023-06-04T04:27:55;1018.72;;;13.39;27.84
46886;BME280;32622;48.202;11.326;2023-06-04T04:29:59;1018.71;;;13.59;27.97
46886;BME280;32622;48.202;11.326;2023-06-04T04:32:03;1019.36;;;11.15;30.33
46886;BME280;32622;48.202;11.326;2023-06-04T04:34:07;1019.15;;;11.79;30.08
46886;BME280;32622;48.202;11.326;2023-06-04T04:36:11;1018.98;;;12.32;29.48
46886;BME280;32622;48.202;11.326;2023-06-04T04:38:15;1019.39;;;10.81;31.92
46886;BME280;32622;48.202;11.326;2023-06-04T04:40:19;1018.76;;;13.44;29.35
46886;BME280;32622;48.202;11.326;2023-06-04T04:42:23;1019.05;;;12.52;29.85
46886;BME280;32622;48.202;11.326;2023-06-04T04:44:26;1019.56;;;10.46;32.90
46886;BME280;32622;48.202;11.326;2023-06-04T04:46:30;1019.98;;;8.77;35.39
46886;BME280;32622;48.202;11.326;2023-06-04T04:48:34;1019.84;;;9.50;35.33
46886;BME280;32622;48.202;11.326;2023-06-04T04:50:38;1019.42;;;11.18;33.00
46886;BME280;32622;48.202;11.326;2023-06-04T04:52:42;1019.38;;;11.47;31.81
46886;BME280;32622;48.202;11.326;2023-06-04T04:54:45;1019.06;;;12.70;30.72
46886;BME280;32622;48.202;11.326;2023-06-04T04:56:49;1019.51;;;10.77;33.21
46886;BME280;32622;48.202;11.326;2023-06-04T04:58:54;1019.75;;;9.91;33.55
46886;BME280;32622;48.202;11.326;2023-06-04T05:00:58;1019.58;;;10.62;32.94
46886;BME280;32622;48.202;11.326;2023-06-04T05:03:01;1019.48;;;11.27;32.49
46886;BME280;32622;48.202;11.326;2023-06-04T05:05:05;1019.61;;;10.74;32.93
46886;BME280;32622;48.202;11.326;2023-06-04T05:07:09;1019.30;;;12.43;31.13
46886;BME280;32622;48.202;11.326;2023-06-04T05:09:13;1019.82;;;10.17;32.88
46886;BME280;32622;48.202;11.326;2023-06-04T05:11:16;1019.45;;;11.96;31.68
46886;BME280;32622;48.202;11.326;2023-06-04T05:13:20;1019.42;;;12.28;30.98
46886;BME280;32622;48.202;11.326;2023-06-04T05:15:25;1019.29;;;12.90;30.16
46886;BME280;32622;48.202;11.326;2023-06-04T05:17:29;1019.70;;;11.17;31.89
46886;BME280;32622;48.202;11.326;2023-06-04T05:19:33;1019.75;;;11.05;32.30
46886;BME280;32622;48.202;11.326;2023-06-04T05:21:37;1019.59;;;11.93;31.15
46886;BME280;32622;48.202;11.326;2023-06-04T05:23:41;1019.63;;;11.84;31.47
46886;BME280;32622;48.202;11.326;2023-06-04T05:25:45;1019.61;;;11.93;31.12
46886;BME280;32622;48.202;11.326;2023-06-04T05:27:49;1020.50;;;8.36;36.77
46886;BME280;32622;48.202;11.326;2023-06-04T05:29:53;1020.59;;;7.97;37.50
46886;BME280;32622;48.202;11.326;2023-06-04T05:31:57;1020.15;;;9.63;34.84
46886;BME280;32622;48.202;11.326;2023-06-04T05:34:01;1020.08;;;9.93;34.01
46886;BME280;32622;48.202;11.326;2023-06-04T05:36:05;1020.29;;;9.12;36.32
46886;BME280;32622;48.202;11.326;2023-06-04T05:38:09;1020.01;;;10.31;33.22
46886;BME280;32622;48.202;11.326;2023-06-04T05:40:13;1019.93;;;10.82;32.86
46886;BME280;32622;48.202;11.326;2023-06-04T05:42:17;1019.87;;;11.23;33.16
46886;BME280;32622;48.202;11.326;2023-06-04T05:44:21;1019.80;;;11.30;32.41
46886;BME280;32622;48.202;11.326;2023-06-04T05:46:24;1019.56;;;12.69;30.86
46886;BME280;32622;48.202;11.326;2023-06-04T05:48:33;1019.44;;;12.99;28.92
46886;BME280;32622;48.202;11.326;2023-06-04T05:50:37;1019.46;;;13.18;29.45
46886;BME280;32622;48.202;11.326;2023-06-04T05:52:40;1019.88;;;11.55;31.68
46886;BME280;32622;48.202;11.326;2023-06-04T05:54:43;1019.20;;;14.28;28.73
46886;BME280;32622;48.202;11.326;2023-06-04T05:56:50;1019.83;;;11.89;31.54
46886;BME280;32622;48.202;11.326;2023-06-04T05:58:53;1019.81;;;11.86;30.93
46886;BME280;32622;48.202;11.326;2023-06-04T06:00:57;1019.41;;;13.24;29.35
46886;BME280;32622;48.202;11.326;2023-06-04T06:03:01;1019.57;;;12.88;30.37
46886;BME280;32622;48.202;11.326;2023-06-04T06:05:06;1019.57;;;12.88;29.42
46886;BME280;32622;48.202;11.326;2023-06-04T06:07:09;1019.30;;;13.84;29.05
46886;BME280;32622;48.202;11.326;2023-06-04T06:09:13;1019.26;;;14.05;28.20
46886;BME280;32622;48.202;11.326;2023-06-04T06:11:17;1019.04;;;15.08;27.41
46886;BME280;32622;48.202;11.326;2023-06-04T06:13:20;1019.23;;;14.37;27.16
46886;BME280;32622;48.202;11.326;2023-06-04T06:15:24;1019.16;;;14.71;27.75
46886;BME280;32622;48.202;11.326;2023-06-04T06:17:28;1019.05;;;15.22;26.65
46886;BME280;32622;48.202;11.326;2023-06-04T06:19:32;1019.21;;;14.76;26.04
46886;BME280;32622;48.202;11.326;2023-06-04T06:21:36;1019.03;;;15.53;26.52
46886;BME280;32622;48.202;11.326;2023-06-04T06:23:39;1019.02;;;15.64;25.95
46886;BME280;32622;48.202;11.326;2023-06-04T06:25:43;1019.16;;;15.12;26.05
46886;BME280;32622;48.202;11.326;2023-06-04T06:27:48;1019.37;;;14.47;26.69
46886;BME280;32622;48.202;11.326;2023-06-04T06:29:52;1019.09;;;15.68;26.15
46886;BME280;32622;48.202;11.326;2023-06-04T06:31:56;1019.23;;;15.21;26.21
46886;BME280;32622;48.202;11.326;2023-06-04T06:34:00;1019.06;;;15.89;25.73
46886;BME280;32622;48.202;11.326;2023-06-04T06:36:04;1019.08;;;15.72;25.37
46886;BME280;32622;48.202;11.326;2023-06-04T06:38:07;1019.04;;;16.22;25.33
46886;BME280;32622;48.202;11.326;2023-06-04T06:40:11;1019.66;;;13.42;27.15
46886;BME280;32622;48.202;11.326;2023-06-04T06:42:15;1019.03;;;16.47;25.98
46886;BME280;32622;48.202;11.326;2023-06-04T06:44:19;1018.75;;;17.48;24.97
46886;BME280;32622;48.202;11.326;2023-06-04T06:46:22;1018.75;;;17.56;23.08
46886;BME280;32622;48.202;11.326;2023-06-04T06:48:26;1018.88;;;16.99;24.02
46886;BME280;32622;48.202;11.326;2023-06-04T06:50:29;1018.93;;;16.80;24.00
46886;BME280;32622;48.202;11.326;2023-06-04T06:52:34;1019.34;;;14.94;25.62
46886;BME280;32622;48.202;11.326;2023-06-04T06:54:39;1018.85;;;17.18;24.02
46886;BME280;32622;48.202;11.326;2023-06-04T06:56:44;1018.49;;;18.46;23.56
46886;BME280;32622;48.202;11.326;2023-06-04T06:58:48;1019.09;;;16.20;24.24
46886;BME280;32622;48.202;11.326;2023-06-04T07:00:52;1019.48;;;14.53;26.72
46886;BME280;32622;48.202;11.326;2023-06-04T07:02:57;1019.32;;;15.11;26.12
46886;BME280;32622;48.202;11.326;2023-06-04T07:05:01;1019.10;;;16.26;25.25
46886;BME280;32622;48.202;11.326;2023-06-04T07:07:04;1018.97;;;16.82;23.79
46886;BME280;32622;48.202;11.326;2023-06-04T07:09:09;1018.72;;;17.63;23.16
46886;BME280;32622;48.202;11.326;2023-06-04T07:11:13;1019.22;;;15.47;24.42
46886;BME280;32622;48.202;11.326;2023-06-04T07:13:17;1018.77;;;17.25;23.20
46886;BME280;32622;48.202;11.326;2023-06-04T07:15:22;1019.30;;;14.95;25.46
46886;BME280;32622;48.202;11.326;2023-06-04T07:17:26;1018.88;;;16.94;23.87
46886;BME280;32622;48.202;11.326;2023-06-04T07:19:30;1019.34;;;14.76;26.01
46886;BME280;32622;48.202;11.326;2023-06-04T07:21:35;1018.62;;;17.94;23.73
46886;BME280;32622;48.202;11.326;2023-06-04T07:23:39;1018.45;;;18.52;23.11
46886;BME280;32622;48.202;11.326;2023-06-04T07:25:43;1018.49;;;18.39;23.06
46886;BME280;32622;48.202;11.326;2023-06-04T07:27:49;1018.47;;;18.76;23.44
46886;BME280;32622;48.202;11.326;2023-06-04T07:29:53;1018.87;;;16.80;24.70
46886;BME280;32622;48.202;11.326;2023-06-04T07:31:58;1019.00;;;16.03;25.11
46886;BME280;32622;48.202;11.326;2023-06-04T07:34:02;1018.88;;;16.71;25.32
46886;BME280;32622;48.202;11.326;2023-06-04T07:36:06;1019.37;;;14.46;27.43
46886;BME280;32622;48.202;11.326;2023-06-04T07:38:10;1019.11;;;15.61;26.44
46886;BME280;32622;48.202;11.326;2023-06-04T07:40:14;1018.77;;;17.35;24.40
46886;BME280;32622;48.202;11.326;2023-06-04T07:42:18;1018.86;;;17.05;25.18
46886;BME280;32622;48.202;11.326;2023-06-04T07:44:22;1019.02;;;16.42;25.32
46886;BME280;32622;48.202;11.326;2023-06-04T07:46:27;1018.65;;;17.84;23.88
46886;BME280;32622;48.202;11.326;2023-06-04T07:48:30;1018.30;;;19.17;22.74
46886;BME280;32622;48.202;11.326;2023-06-04T07:50:36;1018.68;;;17.62;23.88
46886;BME280;32622;48.202;11.326;2023-06-04T07:52:40;1018.66;;;17.76;23.13
46886;BME280;32622;48.202;11.326;2023-06-04T07:54:44;1018.76;;;17.62;23.98
46886;BME280;32622;48.202;11.326;2023-06-04T07:56:47;1018.63;;;17.94;23.77
46886;BME280;32622;48.202;11.326;2023-06-04T07:58:52;1018.64;;;18.23;23.74
46886;BME280;32622;48.202;11.326;2023-06-04T08:00:56;1018.99;;;16.47;24.56
46886;BME280;32622;48.202;11.326;2023-06-04T08:03:00;1018.52;;;18.39;23.07
46886;BME280;32622;48.202;11.326;2023-06-04T08:05:04;1019.02;;;16.35;25.19
46886;BME280;32622;48.202;11.326;2023-06-04T08:07:08;1018.97;;;16.50;25.62
46886;BME280;32622;48.202;11.326;2023-06-04T08:09:12;1018.56;;;18.36;24.02
46886;BME280;32622;48.202;11.326;2023-06-04T08:11:16;1018.72;;;17.71;24.30
46886;BME280;32622;48.202;11.326;2023-06-04T08:13:20;1018.88;;;16.91;24.60
46886;BME280;32622;48.202;11.326;2023-06-04T08:15:24;1019.24;;;15.31;27.12
46886;BME280;32622;48.202;11.326;2023-06-04T08:17:27;1019.16;;;15.63;26.53
46886;BME280;32622;48.202;11.326;2023-06-04T08:19:31;1018.45;;;18.61;23.92
46886;BME280;32622;48.202;11.326;2023-06-04T08:21:36;1018.40;;;18.88;23.65
46886;BME280;32622;48.202;11.326;2023-06-04T08:23:39;1018.46;;;18.61;23.02
46886;BME280;32622;48.202;11.326;2023-06-04T08:25:43;1018.45;;;18.71;22.93
46886;BME280;32622;48.202;11.326;2023-06-04T08:28:03;1018.00;;;20.63;22.13
46886;BME280;32622;48.202;11.326;2023-06-04T08:30:08;1017.99;;;20.52;21.53
46886;BME280;32622;48.202;11.326;2023-06-04T08:32:12;1018.10;;;20.24;22.31
46886;BME280;32622;48.202;11.326;2023-06-04T08:34:17;1018.23;;;19.52;23.26
46886;BME280;32622;48.202;11.326;2023-06-04T08:36:21;1018.42;;;18.57;23.42
46886;BME280;32622;48.202;11.326;2023-06-04T08:38:25;1018.27;;;19.49;22.39
46886;BME280;32622;48.202;11.326;2023-06-04T08:40:30;1018.10;;;20.04;23.09
46886;BME280;32622;48.202;11.326;2023-06-04T08:42:40;1018.39;;;18.71;22.46
46886;BME280;32622;48.202;11.326;2023-06-04T08:44:45;1018.08;;;20.33;21.57
46886;BME280;32622;48.202;11.326;2023-06-04T08:46:52;1018.33;;;19.10;22.19
46886;BME280;32622;48.202;11.326;2023-06-04T08:48:57;1017.87;;;21.15;20.89
46886;BME280;32622;48.202;11.326;2023-06-04T08:51:03;1018.16;;;19.89;22.20
46886;BME280;32622;48.202;11.326;2023-06-04T08:53:15;1018.34;;;19.08;22.40
46886;BME280;32622;48.202;11.326;2023-06-04T08:55:33;1018.06;;;20.60;22.47
46886;BME280;32622;48.202;11.326;2023-06-04T08:57:39;1018.23;;;19.62;21.87
46886;BME280;32622;48.202;11.326;2023-06-04T08:59:43;1018.22;;;19.97;22.25
46886;BME280;32622;48.202;11.326;2023-06-04T09:01:50;1018.70;;;17.50;23.39
46886;BME280;32622;48.202;11.326;2023-06-04T09:03:55;1018.21;;;19.76;23.12
46886;BME280;32622;48.202;11.326;2023-06-04T09:05:59;1018.65;;;18.19;23.41
46886;BME280;32622;48.202;11.326;2023-06-04T09:08:05;1018.18;;;19.94;22.93
46886;BME280;32622;48.202;11.326;2023-06-04T09:10:15;1018.35;;;18.96;22.31
46886;BME280;32622;48.202;11.326;2023-06-04T09:12:23;1017.97;;;20.70;21.43
46886;BME280;32622;48.202;11.326;2023-06-04T09:14:27;1018.50;;;18.41;23.10
46886;BME280;32622;48.202;11.326;2023-06-04T09:16:30;1018.31;;;19.28;21.78
46886;BME280;32622;48.202;11.326;2023-06-04T09:18:34;1018.71;;;17.70;22.66
46886;BME280;32622;48.202;11.326;2023-06-04T09:20:40;1018.71;;;17.65;23.98
46886;BME280;32622;48.202;11.326;2023-06-04T09:22:44;1018.19;;;19.50;23.20
46886;BME280;32622;48.202;11.326;2023-06-04T09:24:48;1018.37;;;19.18;21.75
46886;BME280;32622;48.202;11.326;2023-06-04T09:26:52;1018.23;;;19.79;21.46
46886;BME280;32622;48.202;11.326;2023-06-04T09:28:55;1018.83;;;16.99;24.18
46886;BME280;32622;48.202;11.326;2023-06-04T09:30:59;1018.53;;;18.14;22.63
46886;BME280;32622;48.202;11.326;2023-06-04T09:33:07;1018.57;;;18.16;22.91
46886;BME280;32622;48.202;11.326;2023-06-04T09:35:12;1018.40;;;18.52;22.71
46886;BME280;32622;48.202;11.326;2023-06-04T09:37:21;1018.40;;;18.60;23.24
46886;BME280;32622;48.202;11.326;2023-06-04T09:39:25;1018.06;;;20.00;22.09
46886;BME280;32622;48.202;11.326;2023-06-04T09:41:28;1018.19;;;19.23;21.79
46886;BME280;32622;48.202;11.326;2023-06-04T09:43:32;1018.08;;;19.63;21.27
46886;BME280;32622;48.202;11.326;2023-06-04T09:45:42;1017.97;;;20.14;21.27
46886;BME280;32622;48.202;11.326;2023-06-04T09:47:46;1018.11;;;19.51;21.32
46886;BME280;32622;48.202;11.326;2023-06-04T09:49:50;1018.20;;;19.27;21.31
46886;BME280;32622;48.202;11.326;2023-06-04T09:51:53;1018.78;;;17.03;22.36
46886;BME280;32622;48.202;11.326;2023-06-04T09:53:58;1018.23;;;19.14;20.86
46886;BME280;32622;48.202;11.326;2023-06-04T09:56:03;1018.18;;;19.48;21.19
46886;BME280;32622;48.202;11.326;2023-06-04T09:58:07;1018.06;;;19.85;21.21
46886;BME280;32622;48.202;11.326;2023-06-04T10:00:15;1018.25;;;18.90;21.23
46886;BME280;32622;48.202;11.326;2023-06-04T10:02:20;1018.88;;;16.44;23.33
46886;BME280;32622;48.202;11.326;2023-06-04T10:04:26;1018.98;;;16.23;23.17
46886;BME280;32622;48.202;11.326;2023-06-04T10:06:34;1018.40;;;18.39;21.80
46886;BME280;32622;48.202;11.326;2023-06-04T10:08:40;1018.25;;;19.06;21.24
46886;BME280;32622;48.202;11.326;2023-06-04T10:10:45;1018.28;;;18.90;21.28
46886;BME280;32622;48.202;11.326;2023-06-04T10:12:52;1017.93;;;20.41;20.21
46886;BME280;32622;48.202;11.326;2023-06-04T10:15:02;1017.61;;;22.04;20.19
46886;BME280;32622;48.202;11.326;2023-06-04T10:17:08;1018.11;;;19.57;19.45
46886;BME280;32622;48.202;11.326;2023-06-04T10:19:14;1017.78;;;20.81;20.03
46886;BME280;32622;48.202;11.326;2023-06-04T10:21:18;1017.74;;;21.08;19.04
46886;BME280;32622;48.202;11.326;2023-06-04T10:23:22;1017.68;;;21.49;18.84
46886;BME280;32622;48.202;11.326;2023-06-04T10:25:27;1017.90;;;20.54;19.53
46886;BME280;32622;48.202;11.326;2023-06-04T10:27:31;1018.08;;;19.67;20.19
46886;BME280;32622;48.202;11.326;2023-06-04T10:29:35;1017.79;;;21.36;19.34
46886;BME280;32622;48.202;11.326;2023-06-04T10:31:39;1017.93;;;20.67;18.98
46886;BME280;32622;48.202;11.326;2023-06-04T10:33:43;1018.17;;;19.58;19.45
46886;BME280;32622;48.202;11.326;2023-06-04T10:35:47;1018.06;;;20.01;19.26
46886;BME280;32622;48.202;11.326;2023-06-04T10:37:51;1017.71;;;21.50;18.13
46886;BME280;32622;48.202;11.326;2023-06-04T10:39:56;1017.50;;;22.65;18.10
46886;BME280;32622;48.202;11.326;2023-06-04T10:42:02;1017.55;;;22.21;17.47
46886;BME280;32622;48.202;11.326;2023-06-04T10:44:07;1017.34;;;22.97;17.36
46886;BME280;32622;48.202;11.326;2023-06-04T10:46:14;1017.20;;;23.43;17.34
46886;BME280;32622;48.202;11.326;2023-06-04T10:48:18;1017.61;;;21.64;18.08
46886;BME280;32622;48.202;11.326;2023-06-04T10:50:21;1017.71;;;21.25;18.40
46886;BME280;32622;48.202;11.326;2023-06-04T10:52:25;1018.03;;;19.77;19.85
46886;BME280;32622;48.202;11.326;2023-06-04T10:54:28;1018.40;;;18.43;21.13
46886;BME280;32622;48.202;11.326;2023-06-04T10:56:33;1017.75;;;20.85;19.44
46886;BME280;32622;48.202;11.326;2023-06-04T10:58:37;1017.47;;;21.90;18.30
46886;BME280;32622;48.202;11.326;2023-06-04T11:00:42;1017.19;;;22.79;17.58